Alabordache — FAB8290 — position and weather

sailwx.info

Track history (hours):
 
Tides and Currents Weather Stations Pressure Air Temp Water Temp Dewpoint Dewpoint Depression Visibility Wind Speed Wind Dir Waves Ship Positions

Alabordache

Last reported at 2017-Sep-21 15:51 UTC. Time now 2017-Sep-24 06:43 UTC.
Position N 48°23' W 004°30'.

Length 12 m.

Type: Sailing vessel. MMSI: 227243120.

Date/timePositionNaut miles runAvg speedWind from/ knotsBaromVisibWave heightAir tempDewpointWater temp
2017-Sep-21 15:51N 48°23' W 004°30'0 1.0
2017-Sep-21 15:30N 48°23' W 004°29'1 2.2
2017-Sep-21 15:01N 48°23' W 004°28'2 4.4
2017-Sep-21 14:30N 48°21' W 004°30'1 2.8
2017-Sep-21 14:01N 48°21' W 004°28'3 5.4
2017-Sep-21 13:31N 48°18' W 004°29'1 1.8
2017-Sep-21 13:00N 48°18' W 004°28'3 4.9
2017-Sep-21 12:28N 48°20' W 004°25'0 0.0
2017-Sep-21 11:58N 48°20' W 004°25'0 0.0
2017-Sep-21 11:10N 48°20' W 004°25'0 0.0
2017-Sep-21 10:58N 48°20' W 004°25'0 0.2
2017-Sep-21 10:22N 48°20' W 004°25'1 1.8
2017-Sep-21 10:00N 48°20' W 004°26'2 4.1
2017-Sep-21 09:30N 48°18' W 004°29'0 0.8
2017-Sep-21 09:00N 48°18' W 004°28'1 2.2
2017-Sep-21 08:30N 48°18' W 004°26'1 2.3
2017-Sep-21 08:00N 48°17' W 004°25'0 0.0
2017-Sep-20 16:23N 48°17' W 004°25'0 0.0
2017-Sep-20 15:59N 48°17' W 004°25'0 0.5
2017-Sep-20 15:30N 48°17' W 004°25'1 1.7
2017-Sep-20 15:00N 48°18' W 004°25'0 0.5
2017-Sep-20 14:00N 48°18' W 004°25'3 6.1
2017-Sep-20 13:30N 48°19' W 004°30'1 2.9
2017-Sep-20 13:00N 48°20' W 004°29'2 3.7
2017-Sep-20 12:30N 48°22' W 004°29'1 1.8
2017-Sep-20 12:00N 48°23' W 004°30'0 0.0
2017-Sep-19 15:06N 48°23' W 004°30'0 0.0
2017-Sep-19 15:00N 48°23' W 004°30'1 2.8
2017-Sep-19 14:30N 48°22' W 004°29'1 1.3
2017-Sep-19 14:00N 48°21' W 004°29'1 1.5
2017-Sep-19 13:30N 48°21' W 004°30'3 6.7
2017-Sep-19 13:00N 48°20' W 004°35'2 3.7
2017-Sep-19 12:30N 48°19' W 004°37'2 4.0
2017-Sep-19 12:00N 48°17' W 004°35'0 0.5
2017-Sep-19 11:30N 48°17' W 004°35'0 0.0
2017-Sep-19 11:00N 48°17' W 004°35'0 0.0
2017-Sep-19 10:30N 48°17' W 004°35'0 0.0
2017-Sep-19 10:00N 48°17' W 004°35'0 1.0
2017-Sep-19 09:30N 48°17' W 004°35'1 2.6
2017-Sep-19 09:00N 48°18' W 004°35'1 2.9
2017-Sep-19 08:30N 48°19' W 004°37'1 2.7
2017-Sep-19 08:00N 48°19' W 004°35'4 7.4
2017-Sep-19 07:30N 48°22' W 004°31'1 0.1
2017-Sep-18 17:10N 48°23' W 004°30'0 0.1
2017-Sep-18 17:01N 48°23' W 004°30'0 0.0
2017-Sep-18 16:02N 48°23' W 004°30'0 0.0
2017-Sep-18 15:59N 48°23' W 004°30'0 0.9
2017-Sep-18 15:29N 48°23' W 004°29'1 2.0
2017-Sep-18 15:00N 48°23' W 004°28'0 0.5
2017-Sep-18 14:30N 48°22' W 004°28'0 0.9
2017-Sep-18 14:00N 48°23' W 004°27'1 2.4
2017-Sep-18 13:30N 48°21' W 004°28'2 3.6
2017-Sep-18 13:00N 48°20' W 004°29'0 0.9
2017-Sep-18 12:30N 48°19' W 004°29'2 4.8
2017-Sep-18 12:00N 48°18' W 004°33'0 0.1
2017-Sep-18 10:15N 48°18' W 004°33'0 0.9
2017-Sep-18 10:00N 48°18' W 004°33'1 2.9
2017-Sep-18 09:30N 48°20' W 004°32'2 4.0
2017-Sep-18 09:01N 48°21' W 004°30'1 2.7
2017-Sep-18 08:30N 48°23' W 004°30'0 0.0
2017-Sep-16 12:08N 48°23' W 004°30'0 1.3
2017-Sep-16 12:00N 48°23' W 004°30'2 3.8
2017-Sep-16 11:30N 48°21' W 004°29'2 3.5
2017-Sep-16 11:00N 48°19' W 004°28'3 5.5
2017-Sep-16 10:30N 48°18' W 004°25'1 1.3
2017-Sep-16 09:59N 48°17' W 004°25'0 0.0
2017-Sep-16 09:29N 48°17' W 004°25'1 2.9
2017-Sep-16 09:00N 48°18' W 004°24'2 4.3
2017-Sep-16 08:30N 48°19' W 004°27'2 4.9
2017-Sep-16 08:00N 48°20' W 004°30'3 5.2
2017-Sep-16 07:30N 48°20' W 004°34'2 4.5
2017-Sep-16 07:00N 48°18' W 004°36'1 0.1
2017-Sep-15 16:36N 48°17' W 004°35'0 0.1
2017-Sep-15 16:30N 48°17' W 004°35'1 2.5
2017-Sep-15 16:00N 48°17' W 004°37'3 6.0
2017-Sep-15 15:30N 48°17' W 004°41'3 6.4
2017-Sep-15 15:00N 48°20' W 004°40'2 3.1
2017-Sep-15 14:30N 48°19' W 004°38'4 8.1
2017-Sep-15 14:00N 48°21' W 004°33'2 3.6
2017-Sep-15 13:31N 48°20' W 004°31'2 3.8
2017-Sep-15 13:00N 48°19' W 004°28'2 4.5
2017-Sep-15 12:31N 48°18' W 004°25'1 1.8
2017-Sep-15 11:58N 48°17' W 004°25'0 0.0
2017-Sep-13 13:45N 48°17' W 004°25'0 1.4
2017-Sep-13 13:30N 48°17' W 004°25'2 4.3
2017-Sep-13 13:00N 48°19' W 004°26'1 2.6
2017-Sep-13 12:30N 48°19' W 004°28'1 1.6
2017-Sep-13 12:00N 48°19' W 004°28'1 1.9
2017-Sep-13 11:31N 48°19' W 004°26'1 2.4
2017-Sep-13 11:00N 48°18' W 004°25'  
Track history (hours):
 
Tides and Currents Weather Stations Pressure Air Temp Water Temp Dewpoint Dewpoint Depression Visibility Wind Speed Wind Dir Waves Ship Positions

Alabordache

Last reported at 2017-Sep-21 15:51 UTC. Time now 2017-Sep-24 06:43 UTC.
Position N 48°23' W 004°30'.

Length 12 m.

Type: Sailing vessel. MMSI: 227243120.

Date/timePositionNaut miles runAvg speedWind from/ knotsBaromVisibWave heightAir tempDewpointWater temp
2017-Sep-21 15:51N 48°23' W 004°30'0 1.0
2017-Sep-21 15:30N 48°23' W 004°29'1 2.2
2017-Sep-21 15:01N 48°23' W 004°28'2 4.4
2017-Sep-21 14:30N 48°21' W 004°30'1 2.8
2017-Sep-21 14:01N 48°21' W 004°28'3 5.4
2017-Sep-21 13:31N 48°18' W 004°29'1 1.8
2017-Sep-21 13:00N 48°18' W 004°28'3 4.9
2017-Sep-21 12:28N 48°20' W 004°25'0 0.0
2017-Sep-21 11:58N 48°20' W 004°25'0 0.0
2017-Sep-21 11:10N 48°20' W 004°25'0 0.0
2017-Sep-21 10:58N 48°20' W 004°25'0 0.2
2017-Sep-21 10:22N 48°20' W 004°25'1 1.8
2017-Sep-21 10:00N 48°20' W 004°26'2 4.1
2017-Sep-21 09:30N 48°18' W 004°29'0 0.8
2017-Sep-21 09:00N 48°18' W 004°28'1 2.2
2017-Sep-21 08:30N 48°18' W 004°26'1 2.3
2017-Sep-21 08:00N 48°17' W 004°25'0 0.0
2017-Sep-20 16:23N 48°17' W 004°25'0 0.0
2017-Sep-20 15:59N 48°17' W 004°25'0 0.5
2017-Sep-20 15:30N 48°17' W 004°25'1 1.7
2017-Sep-20 15:00N 48°18' W 004°25'0 0.5
2017-Sep-20 14:00N 48°18' W 004°25'3 6.1
2017-Sep-20 13:30N 48°19' W 004°30'1 2.9
2017-Sep-20 13:00N 48°20' W 004°29'2 3.7
2017-Sep-20 12:30N 48°22' W 004°29'1 1.8
2017-Sep-20 12:00N 48°23' W 004°30'0 0.0
2017-Sep-19 15:06N 48°23' W 004°30'0 0.0
2017-Sep-19 15:00N 48°23' W 004°30'1 2.8
2017-Sep-19 14:30N 48°22' W 004°29'1 1.3
2017-Sep-19 14:00N 48°21' W 004°29'1 1.5
2017-Sep-19 13:30N 48°21' W 004°30'3 6.7
2017-Sep-19 13:00N 48°20' W 004°35'2 3.7
2017-Sep-19 12:30N 48°19' W 004°37'2 4.0
2017-Sep-19 12:00N 48°17' W 004°35'0 0.5
2017-Sep-19 11:30N 48°17' W 004°35'0 0.0
2017-Sep-19 11:00N 48°17' W 004°35'0 0.0
2017-Sep-19 10:30N 48°17' W 004°35'0 0.0
2017-Sep-19 10:00N 48°17' W 004°35'0 1.0
2017-Sep-19 09:30N 48°17' W 004°35'1 2.6
2017-Sep-19 09:00N 48°18' W 004°35'1 2.9
2017-Sep-19 08:30N 48°19' W 004°37'1 2.7
2017-Sep-19 08:00N 48°19' W 004°35'4 7.4
2017-Sep-19 07:30N 48°22' W 004°31'1 0.1
2017-Sep-18 17:10N 48°23' W 004°30'0 0.1
2017-Sep-18 17:01N 48°23' W 004°30'0 0.0
2017-Sep-18 16:02N 48°23' W 004°30'0 0.0
2017-Sep-18 15:59N 48°23' W 004°30'0 0.9
2017-Sep-18 15:29N 48°23' W 004°29'1 2.0
2017-Sep-18 15:00N 48°23' W 004°28'0 0.5
2017-Sep-18 14:30N 48°22' W 004°28'0 0.9
2017-Sep-18 14:00N 48°23' W 004°27'1 2.4
2017-Sep-18 13:30N 48°21' W 004°28'2 3.6
2017-Sep-18 13:00N 48°20' W 004°29'0 0.9
2017-Sep-18 12:30N 48°19' W 004°29'2 4.8
2017-Sep-18 12:00N 48°18' W 004°33'0 0.1
2017-Sep-18 10:15N 48°18' W 004°33'0 0.9
2017-Sep-18 10:00N 48°18' W 004°33'1 2.9
2017-Sep-18 09:30N 48°20' W 004°32'2 4.0
2017-Sep-18 09:01N 48°21' W 004°30'1 2.7
2017-Sep-18 08:30N 48°23' W 004°30'0 0.0
2017-Sep-16 12:08N 48°23' W 004°30'0 1.3
2017-Sep-16 12:00N 48°23' W 004°30'2 3.8
2017-Sep-16 11:30N 48°21' W 004°29'2 3.5
2017-Sep-16 11:00N 48°19' W 004°28'3 5.5
2017-Sep-16 10:30N 48°18' W 004°25'1 1.3
2017-Sep-16 09:59N 48°17' W 004°25'0 0.0
2017-Sep-16 09:29N 48°17' W 004°25'1 2.9
2017-Sep-16 09:00N 48°18' W 004°24'2 4.3
2017-Sep-16 08:30N 48°19' W 004°27'2 4.9
2017-Sep-16 08:00N 48°20' W 004°30'3 5.2
2017-Sep-16 07:30N 48°20' W 004°34'2 4.5
2017-Sep-16 07:00N 48°18' W 004°36'1 0.1
2017-Sep-15 16:36N 48°17' W 004°35'0 0.1
2017-Sep-15 16:30N 48°17' W 004°35'1 2.5
2017-Sep-15 16:00N 48°17' W 004°37'3 6.0
2017-Sep-15 15:30N 48°17' W 004°41'3 6.4
2017-Sep-15 15:00N 48°20' W 004°40'2 3.1
2017-Sep-15 14:30N 48°19' W 004°38'4 8.1
2017-Sep-15 14:00N 48°21' W 004°33'2 3.6
2017-Sep-15 13:31N 48°20' W 004°31'2 3.8
2017-Sep-15 13:00N 48°19' W 004°28'2 4.5
2017-Sep-15 12:31N 48°18' W 004°25'1 1.8
2017-Sep-15 11:58N 48°17' W 004°25'0 0.0
2017-Sep-13 13:45N 48°17' W 004°25'0 1.4
2017-Sep-13 13:30N 48°17' W 004°25'2 4.3
2017-Sep-13 13:00N 48°19' W 004°26'1 2.6
2017-Sep-13 12:30N 48°19' W 004°28'1 1.6
2017-Sep-13 12:00N 48°19' W 004°28'1 1.9
2017-Sep-13 11:31N 48°19' W 004°26'1 2.4
2017-Sep-13 11:00N 48°18' W 004°25'  

Dump ship's entire track history